Terminal Aerodrome Forecast
Issued by NWS

Home | Current Version | Previous Version | Text Only | Print | Product List | Glossary On
Versions: 1 2 3 4 5 6 7 8 9 10 11 12 13 14 15 16 17 18
000
FTAK31 PANC 242356 AAA
TAFAEN
TAF AMD
PAEN 242356Z 2500/2524 20015G23KT P6SM -SHRA SCT025 OVC050
      TEMPO 2500/2502 BKN025
     FM250200 20018G28KT P6SM SCT030 BKN060
     FM251200 18011KT P6SM SCT060
     FM251800 21018G28KT P6SM VCSH SCT030 BKN050=

USA.gov is the U.S. government's official web portal to all federal, state and local government web resources and services.